Time;durP1;ratioP1;P1;durP2;ratioP2;P2;SDS_P1;SDS_P2;PMS_P1;PMS_P2;Temp;Humidity;BMP_temperature;BMP_pressure;BME280_temperature;BME280_humidity;BME280_pressure;Samples;Min_cycle;Max_cycle;Signal;HPM_P1;HPM_P2
2023/11/30 00:01:51;;;;;;;10.15;5.68;;;;;;;7.05;67.90;100384.41;5053148;28;20091;-45
2023/11/30 00:04:17;;;;;;;11.90;6.13;;;;;;;7.06;68.17;100378.38;5052253;28;20506;-46
2023/11/30 00:06:42;;;;;;;11.82;6.00;;;;;;;7.07;68.31;100383.59;5053281;28;20033;-44
2023/11/30 00:09:07;;;;;;;12.07;6.22;;;;;;;7.08;68.57;100376.69;5052457;28;20116;-43
2023/11/30 00:11:33;;;;;;;13.93;6.13;;;;;;;7.21;68.41;100384.72;5053470;28;20032;-47
2023/11/30 00:13:58;;;;;;;10.90;6.00;;;;;;;7.36;67.93;100378.97;5052560;28;20035;-44
2023/11/30 00:16:24;;;;;;;11.27;5.72;;;;;;;7.44;67.91;100387.72;5053459;28;20028;-45
2023/11/30 00:18:49;;;;;;;10.13;5.80;;;;;;;7.44;68.11;100376.50;5059203;28;20033;-44
2023/11/30 00:21:14;;;;;;;13.20;6.60;;;;;;;7.16;68.29;100383.75;5059051;28;20144;-48
2023/11/30 00:23:39;;;;;;;12.70;6.65;;;;;;;7.07;68.78;100377.53;5053245;28;20120;-48
2023/11/30 00:26:05;;;;;;;12.60;6.57;;;;;;;7.28;68.51;100380.53;5052642;28;20060;-44
2023/11/30 00:28:30;;;;;;;13.15;7.05;;;;;;;7.10;68.27;100372.41;5053232;28;20482;-44
2023/11/30 00:30:56;;;;;;;12.77;7.20;;;;;;;7.03;68.02;100361.03;5052897;28;20079;-50
2023/11/30 00:33:21;;;;;;;13.85;7.30;;;;;;;7.23;67.66;100362.31;5053121;28;20037;-46
2023/11/30 00:35:46;;;;;;;12.20;6.70;;;;;;;7.19;67.35;100357.91;5053011;28;20515;-45
2023/11/30 00:38:12;;;;;;;15.02;7.55;;;;;;;7.16;67.62;100363.03;5051644;28;20127;-50
2023/11/30 00:40:40;;;;;;;11.18;6.85;;;;;;;7.13;67.57;100351.75;5052874;28;20029;-45
2023/11/30 00:43:06;;;;;;;12.38;7.28;;;;;;;7.16;67.32;100351.78;5052632;28;20124;-45
2023/11/30 00:45:31;;;;;;;15.73;7.63;;;;;;;7.14;67.12;100346.56;5053694;28;20082;-45
2023/11/30 00:47:57;;;;;;;14.77;7.40;;;;;;;7.13;66.93;100347.44;5053289;28;20143;-46
2023/11/30 00:50:22;;;;;;;15.00;8.35;;;;;;;7.06;67.13;100345.56;5056116;28;20032;-46
2023/11/30 00:52:48;;;;;;;15.88;8.23;;;;;;;6.96;66.97;100346.22;5061061;28;20097;-44
2023/11/30 00:55:13;;;;;;;14.90;8.20;;;;;;;6.93;66.82;100336.69;5058875;28;20029;-48
2023/11/30 00:57:39;;;;;;;14.30;7.70;;;;;;;6.91;66.62;100333.19;5059769;28;20037;-49
2023/11/30 01:00:05;;;;;;;17.58;7.93;;;;;;;6.89;66.35;100339.19;5057193;28;20025;-45
2023/11/30 01:02:31;;;;;;;15.35;8.50;;;;;;;6.75;66.83;100335.44;5055295;28;20057;-46
2023/11/30 01:04:57;;;;;;;16.00;8.48;;;;;;;6.74;66.85;100333.69;5051760;28;20114;-44
2023/11/30 01:07:22;;;;;;;16.42;7.85;;;;;;;6.82;66.39;100337.31;5052171;28;20388;-44
2023/11/30 01:09:47;;;;;;;17.23;8.52;;;;;;;6.70;66.88;100340.53;5051625;28;20487;-45
2023/11/30 01:12:13;;;;;;;15.27;8.30;;;;;;;6.68;67.24;100325.78;5051956;28;20044;-46
2023/11/30 01:14:40;;;;;;;16.55;8.65;;;;;;;6.73;67.30;100322.44;5052212;28;20398;-45
2023/11/30 01:17:05;;;;;;;15.77;8.63;;;;;;;6.79;67.19;100326.88;5051700;28;20048;-45
2023/11/30 01:19:30;;;;;;;16.55;8.70;;;;;;;6.74;67.87;100324.19;5052179;28;20033;-51
2023/11/30 01:21:56;;;;;;;20.33;8.95;;;;;;;6.84;67.95;100326.13;5060406;28;20033;-49
2023/11/30 01:24:22;;;;;;;18.13;9.05;;;;;;;6.88;67.87;100321.88;5057072;28;20033;-46
2023/11/30 01:26:48;;;;;;;18.55;9.90;;;;;;;6.90;67.63;100318.47;5051641;28;20040;-45
2023/11/30 01:29:13;;;;;;;18.95;9.82;;;;;;;6.97;68.03;100322.06;5050015;28;20380;-44
2023/11/30 01:31:39;;;;;;;16.05;9.15;;;;;;;6.97;67.74;100319.47;5051445;28;20040;-43
2023/11/30 01:34:04;;;;;;;17.00;9.32;;;;;;;7.01;67.80;100312.63;5051100;28;20087;-47
2023/11/30 01:36:29;;;;;;;17.00;9.63;;;;;;;6.92;67.88;100321.97;5051019;28;20033;-45
2023/11/30 01:38:55;;;;;;;17.92;9.48;;;;;;;6.95;68.18;100320.28;5050962;28;20186;-47
2023/11/30 01:41:20;;;;;;;17.98;9.70;;;;;;;6.93;68.55;100317.66;5051007;28;20491;-44
2023/11/30 01:43:45;;;;;;;19.58;10.25;;;;;;;6.98;68.28;100317.75;5050978;28;20591;-45
2023/11/30 01:46:12;;;;;;;17.05;9.82;;;;;;;7.02;68.29;100315.22;5050478;28;20460;-49
2023/11/30 01:48:38;;;;;;;18.33;10.70;;;;;;;7.04;68.36;100315.25;5051405;28;20037;-46
2023/11/30 01:51:06;;;;;;;18.02;9.82;;;;;;;6.99;68.42;100310.00;5050788;28;20033;-46
2023/11/30 01:53:32;;;;;;;18.58;10.40;;;;;;;6.98;68.40;100315.16;5051030;28;20064;-46
2023/11/30 01:55:58;;;;;;;18.88;9.90;;;;;;;7.14;68.23;100314.56;5050009;28;20411;-46
2023/11/30 01:58:24;;;;;;;23.33;10.70;;;;;;;7.05;67.75;100320.50;5050948;28;20488;-47
2023/11/30 02:00:50;;;;;;;17.98;9.98;;;;;;;7.01;68.16;100312.63;5050653;28;20037;-48
2023/11/30 02:03:16;;;;;;;19.35;10.60;;;;;;;7.07;68.11;100311.03;5049998;28;20561;-49
2023/11/30 02:05:42;;;;;;;18.15;10.18;;;;;;;6.96;67.73;100309.06;5050543;28;20052;-48
2023/11/30 02:08:07;;;;;;;18.23;10.13;;;;;;;7.04;68.17;100312.69;5050551;28;20033;-46
2023/11/30 02:10:33;;;;;;;19.38;10.20;;;;;;;7.04;67.45;100317.84;5049970;28;20032;-45
2023/11/30 02:12:58;;;;;;;21.20;10.57;;;;;;;6.92;68.05;100315.91;5048799;28;20063;-47
2023/11/30 02:15:23;;;;;;;16.80;10.13;;;;;;;6.83;68.45;100313.16;5050675;28;20124;-45
2023/11/30 02:17:49;;;;;;;21.10;11.18;;;;;;;6.91;68.26;100316.75;5050897;28;20036;-47
2023/11/30 02:20:14;;;;;;;19.92;11.13;;;;;;;6.95;67.98;100312.53;5050097;28;20628;-48
2023/11/30 02:22:40;;;;;;;21.10;11.45;;;;;;;6.95;67.76;100310.81;5050487;28;20090;-46
2023/11/30 02:25:05;;;;;;;24.55;11.20;;;;;;;6.97;67.51;100305.63;5050181;28;20551;-46
2023/11/30 02:27:31;;;;;;;24.17;11.65;;;;;;;6.71;67.89;100302.56;5050769;28;20052;-48
2023/11/30 02:29:56;;;;;;;26.90;12.00;;;;;;;6.82;67.97;100304.50;5049447;28;20040;-48
2023/11/30 02:32:21;;;;;;;25.23;13.00;;;;;;;6.81;68.09;100307.06;5050310;28;20503;-45
2023/11/30 02:34:47;;;;;;;21.92;11.43;;;;;;;6.84;67.70;100301.94;5050134;28;20071;-45
2023/11/30 02:37:12;;;;;;;24.08;12.40;;;;;;;6.78;67.74;100297.50;5049678;28;20033;-44
2023/11/30 02:39:37;;;;;;;25.02;12.10;;;;;;;6.61;68.07;100292.84;5050067;28;20510;-48
2023/11/30 02:42:03;;;;;;;22.02;12.25;;;;;;;6.70;68.10;100293.03;5049786;28;20037;-47
2023/11/30 02:44:28;;;;;;;21.25;12.25;;;;;;;6.75;67.58;100299.19;5050222;28;20399;-47
2023/11/30 02:46:53;;;;;;;22.90;11.77;;;;;;;6.74;67.57;100300.00;5050001;28;20045;-50
2023/11/30 02:49:18;;;;;;;23.15;12.30;;;;;;;6.68;67.67;100303.38;5049693;28;20025;-45
2023/11/30 02:51:44;;;;;;;23.23;12.65;;;;;;;6.72;67.94;100291.31;5050890;28;20403;-47
2023/11/30 02:54:09;;;;;;;25.10;12.50;;;;;;;6.70;67.75;100287.84;5050161;28;20033;-45
2023/11/30 02:56:39;;;;;;;22.38;12.23;;;;;;;6.66;67.84;100278.25;5050365;28;20033;-45
2023/11/30 02:59:04;;;;;;;22.83;12.80;;;;;;;6.67;67.56;100283.47;5049383;28;20065;-50
2023/11/30 03:01:29;;;;;;;22.42;12.50;;;;;;;6.63;67.61;100281.69;5049921;28;20063;-46
2023/11/30 03:03:55;;;;;;;23.92;12.18;;;;;;;6.56;68.05;100277.22;5049917;28;20033;-45
2023/11/30 03:06:20;;;;;;;24.55;12.13;;;;;;;6.67;67.94;100283.47;5049340;28;20033;-46
2023/11/30 03:08:46;;;;;;;22.33;12.27;;;;;;;6.62;67.65;100279.06;5049824;28;20136;-43
2023/11/30 03:11:12;;;;;;;27.45;12.85;;;;;;;6.59;68.19;100282.44;5049458;28;20041;-45
2023/11/30 03:13:37;;;;;;;22.95;12.43;;;;;;;6.59;67.82;100286.78;5049851;28;20037;-45
2023/11/30 03:16:02;;;;;;;27.50;12.68;;;;;;;6.58;67.38;100285.91;5050269;28;20186;-45
2023/11/30 03:18:28;;;;;;;22.95;12.25;;;;;;;6.55;67.64;100279.78;5050556;28;20037;-44
2023/11/30 03:20:53;;;;;;;24.45;12.68;;;;;;;6.60;67.27;100279.00;5051555;28;20116;-47
2023/11/30 03:23:18;;;;;;;26.30;12.73;;;;;;;6.27;67.46;100281.81;5055288;28;20483;-48
2023/11/30 03:25:44;;;;;;;24.83;13.23;;;;;;;5.83;69.69;100285.09;5054005;28;20055;-46
2023/11/30 03:28:09;;;;;;;24.40;13.10;;;;;;;6.06;69.06;100279.63;5055591;28;20059;-46
2023/11/30 03:30:34;;;;;;;23.80;12.80;;;;;;;6.20;67.97;100279.94;5053974;28;20025;-46
2023/11/30 03:33:00;;;;;;;26.77;12.45;;;;;;;6.22;67.84;100282.56;5053536;28;20037;-45
2023/11/30 03:35:25;;;;;;;24.00;11.93;;;;;;;6.24;67.69;100288.63;5053545;28;20468;-49
2023/11/30 03:37:51;;;;;;;25.98;13.10;;;;;;;6.09;67.71;100292.66;5053502;28;20573;-47
2023/11/30 03:40:16;;;;;;;23.25;12.10;;;;;;;6.11;67.85;100292.66;5051439;28;20040;-44
2023/11/30 03:42:41;;;;;;;27.02;12.85;;;;;;;6.11;67.59;100288.34;5053119;28;20033;-48
2023/11/30 03:45:07;;;;;;;23.40;12.13;;;;;;;6.10;67.65;100291.78;5052742;28;20074;-46
2023/11/30 03:47:32;;;;;;;24.30;12.18;;;;;;;6.11;67.75;100292.66;5053650;28;20067;-48
2023/11/30 03:49:58;;;;;;;23.13;12.52;;;;;;;6.13;67.92;100287.50;5052702;28;20033;-45
2023/11/30 03:52:23;;;;;;;20.80;11.32;;;;;;;6.14;68.03;100290.16;5053578;28;20033;-45
2023/11/30 03:54:48;;;;;;;21.85;11.70;;;;;;;6.15;68.00;100283.25;5053564;28;20033;-46
2023/11/30 03:57:13;;;;;;;24.58;12.70;;;;;;;6.17;67.82;100287.59;5052618;28;20124;-44
2023/11/30 03:59:39;;;;;;;23.05;12.50;;;;;;;6.19;67.69;100291.13;5052928;28;20032;-45
2023/11/30 04:02:04;;;;;;;22.17;11.75;;;;;;;6.21;67.98;100288.56;5052942;28;20441;-50
2023/11/30 04:04:30;;;;;;;24.40;13.27;;;;;;;6.15;68.15;100286.72;5053375;28;20033;-47
2023/11/30 04:06:55;;;;;;;23.67;12.57;;;;;;;6.16;68.07;100280.69;5052981;28;20491;-47
2023/11/30 04:09:21;;;;;;;24.73;12.65;;;;;;;6.14;68.00;100290.16;5053708;28;20043;-49
2023/11/30 04:11:46;;;;;;;25.55;13.93;;;;;;;6.17;67.92;100287.59;5054182;28;20071;-46
2023/11/30 04:14:11;;;;;;;25.55;13.55;;;;;;;6.16;67.90;100285.84;5053076;28;20029;-46
2023/11/30 04:16:37;;;;;;;26.73;13.77;;;;;;;6.12;68.25;100291.81;5053688;28;20471;-44
2023/11/30 04:19:02;;;;;;;29.08;14.15;;;;;;;5.84;69.33;100295.47;5050857;28;20507;-45
2023/11/30 04:21:28;;;;;;;28.60;14.35;;;;;;;6.08;68.80;100295.19;5052591;28;20070;-49
2023/11/30 04:23:53;;;;;;;31.10;14.85;;;;;;;5.78;69.17;100294.47;5052677;28;20057;-49
2023/11/30 04:26:19;;;;;;;28.73;14.30;;;;;;;5.94;68.26;100296.59;5051624;28;20028;-45
2023/11/30 04:28:44;;;;;;;28.40;14.95;;;;;;;6.02;68.28;100289.88;5052215;28;20044;-48
2023/11/30 04:31:09;;;;;;;30.58;14.73;;;;;;;6.03;68.25;100294.22;5051628;28;20100;-46
2023/11/30 04:33:35;;;;;;;30.92;15.63;;;;;;;5.90;68.81;100292.19;5051840;28;20136;-44
2023/11/30 04:36:00;;;;;;;34.90;15.20;;;;;;;5.92;68.90;100293.06;5051349;28;20517;-46
2023/11/30 04:38:26;;;;;;;33.28;15.50;;;;;;;5.92;68.63;100293.06;5052437;28;20521;-46
2023/11/30 04:40:51;;;;;;;34.50;16.23;;;;;;;5.94;69.30;100289.69;5052384;28;20099;-47
2023/11/30 04:43:16;;;;;;;36.80;16.23;;;;;;;6.00;68.46;100300.19;5051975;28;20521;-49
2023/11/30 04:45:41;;;;;;;38.10;16.50;;;;;;;6.02;68.25;100297.63;5051898;28;20040;-46
2023/11/30 04:48:07;;;;;;;36.08;16.65;;;;;;;5.98;68.06;100303.56;5051668;28;20037;-48
2023/11/30 04:50:32;;;;;;;55.30;16.65;;;;;;;5.94;68.04;100312.97;5051649;28;20048;-46
2023/11/30 04:52:57;;;;;;;38.50;16.20;;;;;;;6.05;68.22;100298.56;5052054;28;20033;-47
2023/11/30 04:55:23;;;;;;;35.75;16.10;;;;;;;6.09;67.95;100302.13;5051843;28;20098;-48
2023/11/30 04:57:48;;;;;;;48.40;17.13;;;;;;;6.01;68.20;100299.34;5051967;28;20029;-45
2023/11/30 05:00:14;;;;;;;41.10;16.67;;;;;;;6.02;68.08;100295.06;5049986;28;20036;-45
2023/11/30 05:02:55;;;;;;;34.78;16.08;;;;;;;6.00;67.97;100296.72;5052003;28;20423;-47
2023/11/30 05:05:21;;;;;;;54.75;18.98;;;;;;;5.86;68.12;100304.13;5051464;28;20033;-44
2023/11/30 05:07:46;;;;;;;73.10;19.92;;;;;;;5.87;68.37;100305.00;5051965;28;20041;-46
2023/11/30 05:10:11;;;;;;;56.25;19.77;;;;;;;5.82;68.80;100302.31;5051421;28;20406;-49
2023/11/30 05:12:37;;;;;;;69.65;21.70;;;;;;;5.72;68.49;100297.78;5052315;28;20434;-46
2023/11/30 05:15:03;;;;;;;53.38;19.85;;;;;;;5.61;68.80;100296.66;5051869;28;20415;-44
2023/11/30 05:17:29;;;;;;;46.55;19.23;;;;;;;5.69;68.83;100293.41;5052619;28;20078;-46
2023/11/30 05:19:54;;;;;;;79.93;20.08;;;;;;;5.60;69.64;100292.31;5051542;28;20498;-47
2023/11/30 05:22:20;;;;;;;88.32;20.88;;;;;;;5.79;68.65;100289.34;5051240;28;20036;-47
2023/11/30 05:24:45;;;;;;;78.80;20.40;;;;;;;5.81;68.28;100285.03;5051560;28;20128;-48
2023/11/30 05:27:10;;;;;;;56.13;19.88;;;;;;;5.76;68.89;100289.25;5050873;28;20045;-45
2023/11/30 05:29:36;;;;;;;43.13;19.63;;;;;;;5.90;68.12;100287.91;5051142;28;20048;-44
2023/11/30 05:32:01;;;;;;;63.67;18.80;;;;;;;5.81;68.47;100282.47;5050911;28;20059;-45
2023/11/30 05:34:26;;;;;;;42.58;18.17;;;;;;;5.72;68.60;100290.03;5051061;28;20060;-50
2023/11/30 05:36:52;;;;;;;52.78;18.75;;;;;;;5.82;68.25;100279.03;5050709;28;20056;-45
2023/11/30 05:39:17;;;;;;;69.05;18.15;;;;;;;5.79;68.06;100286.75;5050579;28;20029;-48
2023/11/30 05:41:42;;;;;;;128.70;19.08;;;;;;;5.83;68.01;100285.09;5051183;28;20029;-43
2023/11/30 05:44:08;;;;;;;41.17;17.05;;;;;;;5.83;68.13;100287.69;5050211;28;20033;-48
2023/11/30 05:46:33;;;;;;;58.08;17.45;;;;;;;5.76;68.53;100303.88;5050666;28;20059;-49
2023/11/30 05:48:58;;;;;;;48.70;17.67;;;;;;;5.90;68.01;100303.41;5050390;28;20380;-47
2023/11/30 05:51:24;;;;;;;90.60;17.27;;;;;;;5.87;68.14;100305.00;5050460;28;20029;-46
2023/11/30 05:53:49;;;;;;;47.13;17.08;;;;;;;5.70;69.13;100307.22;5050187;28;20044;-44
2023/11/30 05:56:14;;;;;;;94.00;17.88;;;;;;;5.81;68.58;100305.75;5050291;28;20044;-45
2023/11/30 05:58:40;;;;;;;99.35;19.42;;;;;;;5.70;69.12;100307.22;5050707;28;20059;-44
2023/11/30 06:01:05;;;;;;;75.55;19.83;;;;;;;5.90;68.58;100307.72;5050247;28;20115;-45
2023/11/30 06:03:31;;;;;;;107.25;20.27;;;;;;;5.88;68.37;100315.44;5050556;28;20058;-48
2023/11/30 06:05:56;;;;;;;99.68;22.83;;;;;;;5.75;68.95;100315.06;5050263;28;20041;-47
2023/11/30 06:08:24;;;;;;;73.65;21.67;;;;;;;5.79;69.31;100315.19;5050777;28;20044;-46
2023/11/30 06:10:49;;;;;;;67.07;21.63;;;;;;;5.66;69.45;100318.31;5050597;28;20048;-48
2023/11/30 06:13:15;;;;;;;75.07;21.83;;;;;;;5.71;69.65;100308.97;5050128;28;20043;-46
2023/11/30 06:15:41;;;;;;;157.15;22.75;;;;;;;5.83;69.13;100326.47;5050538;28;20128;-49
2023/11/30 06:18:06;;;;;;;91.70;21.95;;;;;;;5.84;68.68;100320.47;5049769;28;20043;-49
2023/11/30 06:20:32;;;;;;;67.90;20.92;;;;;;;5.99;68.85;100326.91;5048831;28;20033;-45
2023/11/30 06:22:57;;;;;;;161.95;22.23;;;;;;;5.80;68.73;100331.56;5050097;28;20029;-46
2023/11/30 06:25:23;;;;;;;140.55;21.50;;;;;;;5.75;68.69;100330.59;5049743;28;20037;-48
2023/11/30 06:27:48;;;;;;;167.15;22.42;;;;;;;5.51;69.59;100331.75;5050426;28;20462;-47
2023/11/30 06:30:13;;;;;;;188.48;20.92;;;;;;;5.63;68.83;100342.38;5049622;28;20041;-45
2023/11/30 06:32:39;;;;;;;137.30;22.73;;;;;;;5.50;69.23;100339.44;5049805;28;20037;-45
2023/11/30 06:35:05;;;;;;;309.58;23.90;;;;;;;5.54;68.80;100343.88;5048374;28;20033;-45
2023/11/30 06:37:30;;;;;;;121.25;21.70;;;;;;;5.69;68.54;100349.41;5050317;28;20442;-45
2023/11/30 06:39:56;;;;;;;42.90;20.30;;;;;;;5.85;68.68;100355.84;5049728;28;20029;-46
2023/11/30 06:42:21;;;;;;;226.38;22.80;;;;;;;5.77;68.62;100344.44;5050298;28;20033;-51
2023/11/30 06:44:47;;;;;;;132.75;23.60;;;;;;;5.78;68.72;100351.38;5049804;28;20194;-47
2023/11/30 06:47:13;;;;;;;85.68;22.48;;;;;;;5.76;68.95;100350.44;5049522;28;20048;-44
2023/11/30 06:49:38;;;;;;;52.42;22.63;;;;;;;5.82;68.81;100348.88;5049875;28;20025;-47
2023/11/30 06:52:04;;;;;;;51.30;23.05;;;;;;;5.91;68.22;100351.72;5049760;28;20025;-50
2023/11/30 06:54:29;;;;;;;51.60;22.95;;;;;;;5.94;68.50;100350.91;5050233;28;20508;-46
2023/11/30 06:56:55;;;;;;;119.05;24.08;;;;;;;5.87;68.46;100355.06;5049933;28;20491;-45
2023/11/30 06:59:20;;;;;;;61.83;22.83;;;;;;;5.68;69.63;100347.66;5049562;28;20032;-48
2023/11/30 07:01:46;;;;;;;49.15;23.25;;;;;;;5.90;69.04;100346.53;5050136;28;20467;-49
2023/11/30 07:04:12;;;;;;;72.45;22.63;;;;;;;6.03;68.31;100345.97;5049640;28;20115;-45
2023/11/30 07:06:38;;;;;;;198.38;26.95;;;;;;;5.35;70.03;100345.13;5052141;28;20048;-49
2023/11/30 07:09:06;;;;;;;72.43;23.80;;;;;;;5.74;69.77;100355.56;5050129;28;20609;-46
2023/11/30 07:11:31;;;;;;;81.63;25.23;;;;;;;5.80;69.06;100355.72;5051215;28;20033;-45
2023/11/30 07:13:57;;;;;;;108.63;24.58;;;;;;;5.87;68.71;100351.56;5051495;28;20086;-46
2023/11/30 07:16:22;;;;;;;60.35;24.05;;;;;;;5.92;68.48;100358.63;5052514;28;20046;-46
2023/11/30 07:18:47;;;;;;;143.30;24.98;;;;;;;5.55;69.52;100362.00;5057527;28;20128;-46
2023/11/30 07:21:16;;;;;;;71.70;24.50;;;;;;;5.58;69.67;100354.34;5054384;28;20041;-47
2023/11/30 07:23:42;;;;;;;58.78;25.02;;;;;;;5.84;68.50;100361.84;5057075;28;20385;-48
2023/11/30 07:26:12;;;;;;;64.88;24.50;;;;;;;5.91;68.49;100353.44;5054172;28;20069;-44
2023/11/30 07:28:37;;;;;;;51.17;23.73;;;;;;;5.87;68.74;100360.25;5049009;28;20079;-48
2023/11/30 07:31:03;;;;;;;90.72;25.25;;;;;;;5.88;68.72;100356.81;5049032;28;20033;-44
2023/11/30 07:33:29;;;;;;;89.97;26.10;;;;;;;5.96;68.40;100354.44;5050476;28;20040;-45
2023/11/30 07:35:54;;;;;;;64.68;24.27;;;;;;;6.00;68.85;100351.06;5050196;28;20040;-46
2023/11/30 07:38:19;;;;;;;57.55;23.52;;;;;;;6.08;68.80;100352.13;5049249;28;20435;-48
2023/11/30 07:40:45;;;;;;;52.85;23.50;;;;;;;6.11;68.80;100354.75;5049287;28;20496;-46
2023/11/30 07:43:11;;;;;;;172.68;25.88;;;;;;;5.60;69.80;100347.50;5049033;28;20124;-48
2023/11/30 07:45:37;;;;;;;83.03;25.50;;;;;;;5.92;69.42;100350.00;5049632;28;20045;-45
2023/11/30 07:48:03;;;;;;;93.35;24.38;;;;;;;6.10;68.61;100353.88;5049256;28;20052;-47
2023/11/30 07:50:28;;;;;;;87.60;24.48;;;;;;;6.07;68.39;100356.41;5049172;28;20094;-46
2023/11/30 07:52:54;;;;;;;54.85;23.00;;;;;;;6.10;68.72;100359.06;5049414;28;20033;-53
2023/11/30 07:55:20;;;;;;;52.33;21.77;;;;;;;6.11;68.77;100360.81;5049027;28;20120;-46
2023/11/30 07:57:45;;;;;;;62.38;22.75;;;;;;;6.08;69.30;100365.06;5049292;28;20109;-46
2023/11/30 08:00:11;;;;;;;52.58;21.25;;;;;;;6.27;68.94;100356.88;5048170;28;20056;-50
2023/11/30 08:02:37;;;;;;;99.85;22.30;;;;;;;6.18;68.59;100364.41;5049056;28;20033;-46
2023/11/30 08:05:04;;;;;;;80.97;21.90;;;;;;;6.20;68.77;100367.06;5048227;28;20045;-47
2023/11/30 08:07:30;;;;;;;64.82;23.15;;;;;;;6.21;68.84;100364.50;5049124;28;20407;-46
2023/11/30 08:09:55;;;;;;;63.15;23.40;;;;;;;6.13;69.20;100360.84;5051385;28;20037;-48
2023/11/30 08:12:21;;;;;;;66.53;22.23;;;;;;;6.27;68.86;100353.41;5052402;28;20574;-47
2023/11/30 08:14:46;;;;;;;50.13;22.00;;;;;;;6.45;68.38;100353.81;5052911;28;20064;-48
2023/11/30 08:17:12;;;;;;;61.97;22.13;;;;;;;6.31;68.41;100350.91;5051923;28;20119;-47
2023/11/30 08:19:37;;;;;;;56.00;21.75;;;;;;;6.36;68.69;100351.00;5052457;28;20037;-48
2023/11/30 08:22:02;;;;;;;60.80;22.20;;;;;;;6.37;68.71;100355.34;5051902;28;20037;-44
2023/11/30 08:24:29;;;;;;;67.00;21.45;;;;;;;6.32;68.75;100347.50;5052657;28;20116;-48
2023/11/30 08:26:54;;;;;;;60.78;22.83;;;;;;;6.37;68.84;100347.59;5052578;28;20383;-48
2023/11/30 08:29:20;;;;;;;49.33;21.67;;;;;;;6.46;68.55;100342.63;5051988;28;20032;-46
2023/11/30 08:31:45;;;;;;;43.45;21.85;;;;;;;6.38;68.41;100337.28;5051201;28;20040;-45
2023/11/30 08:34:11;;;;;;;51.30;22.77;;;;;;;6.53;68.19;100344.47;5050564;28;20060;-49
2023/11/30 08:36:36;;;;;;;46.80;21.42;;;;;;;6.50;68.49;100341.84;5051923;28;20032;-48
2023/11/30 08:39:03;;;;;;;48.50;22.20;;;;;;;6.41;68.64;100337.31;5051983;28;20091;-45
2023/11/30 08:41:29;;;;;;;47.90;21.48;;;;;;;6.10;68.86;100342.66;5052134;28;20469;-47
2023/11/30 08:43:54;;;;;;;55.05;22.80;;;;;;;6.16;69.17;100336.78;5052248;28;20120;-45
2023/11/30 08:46:19;;;;;;;48.20;23.58;;;;;;;6.42;68.96;100338.19;5051273;28;20445;-45
2023/11/30 08:48:45;;;;;;;45.15;22.90;;;;;;;6.43;69.02;100329.59;5051991;28;20033;-48
2023/11/30 08:51:11;;;;;;;48.60;23.77;;;;;;;6.61;69.13;100334.28;5051840;28;20096;-45
2023/11/30 08:53:36;;;;;;;45.22;23.63;;;;;;;6.44;68.80;100333.94;5052162;28;20041;-43
2023/11/30 08:56:02;;;;;;;49.38;24.20;;;;;;;6.65;68.55;100333.53;5051773;28;20075;-46
2023/11/30 08:58:27;;;;;;;49.00;23.75;;;;;;;6.62;68.34;100326.56;5052132;28;20041;-48
2023/11/30 09:00:52;;;;;;;52.15;24.40;;;;;;;6.67;68.20;100329.22;5052057;28;20159;-44
2023/11/30 09:03:18;;;;;;;49.75;24.38;;;;;;;6.80;68.01;100341.59;5051393;28;20029;-49
2023/11/30 09:05:43;;;;;;;50.15;24.88;;;;;;;6.88;67.85;100335.72;5051896;28;20442;-48
2023/11/30 09:08:09;;;;;;;53.42;25.15;;;;;;;6.83;68.00;100333.88;5051626;28;20056;-45
2023/11/30 09:10:34;;;;;;;44.70;23.33;;;;;;;6.86;68.41;100339.13;5051671;28;20064;-46
2023/11/30 09:13:02;;;;;;;45.70;23.95;;;;;;;6.91;68.15;100337.47;5051464;28;20037;-45
2023/11/30 09:15:28;;;;;;;51.10;25.08;;;;;;;6.84;68.06;100346.84;5052542;28;20033;-48
2023/11/30 09:17:56;;;;;;;50.53;25.17;;;;;;;6.89;67.99;100349.56;5051645;28;20059;-47
2023/11/30 09:20:22;;;;;;;46.58;24.83;;;;;;;6.42;69.29;100346.84;5050925;28;20088;-46
2023/11/30 09:22:47;;;;;;;48.65;24.90;;;;;;;6.83;68.15;100344.25;5051412;28;20037;-44
2023/11/30 09:25:13;;;;;;;52.63;24.88;;;;;;;7.06;67.91;100352.47;5050930;28;20048;-46
2023/11/30 09:27:38;;;;;;;50.38;24.77;;;;;;;6.93;68.13;100348.75;5051547;28;20025;-49
2023/11/30 09:30:04;;;;;;;53.08;25.65;;;;;;;6.95;68.29;100354.84;5050679;28;20432;-45
2023/11/30 09:32:30;;;;;;;51.03;26.70;;;;;;;6.75;68.96;100359.63;5051482;28;20495;-48
2023/11/30 09:34:55;;;;;;;50.45;25.30;;;;;;;7.01;67.88;100356.69;5051314;28;20111;-46
2023/11/30 09:37:20;;;;;;;50.10;25.13;;;;;;;7.17;68.14;100366.50;5050710;28;20029;-48
2023/11/30 09:39:46;;;;;;;49.45;25.27;;;;;;;6.88;67.91;100369.41;5050875;28;20068;-46
2023/11/30 09:42:15;;;;;;;47.78;24.80;;;;;;;6.51;68.95;100364.31;5050957;28;20061;-48
2023/11/30 09:44:42;;;;;;;50.28;23.70;;;;;;;6.40;69.88;100355.44;5051037;28;20039;-49
2023/11/30 09:47:08;;;;;;;45.50;23.38;;;;;;;6.01;71.20;100363.16;5050620;28;20097;-44
2023/11/30 09:49:33;;;;;;;51.72;24.52;;;;;;;5.50;71.76;100361.00;5050621;28;20148;-51
2023/11/30 09:51:58;;;;;;;48.80;24.27;;;;;;;6.44;70.17;100365.00;5050124;28;20044;-46
2023/11/30 09:54:24;;;;;;;54.20;24.55;;;;;;;6.16;69.58;100367.84;5051030;28;20037;-47
2023/11/30 09:56:50;;;;;;;53.00;24.00;;;;;;;6.64;69.80;100361.13;5050911;28;20037;-46
2023/11/30 09:59:15;;;;;;;50.83;25.30;;;;;;;6.78;68.66;100359.69;5050423;28;20037;-53
2023/11/30 10:01:42;;;;;;;57.63;26.50;;;;;;;6.56;70.13;100359.22;5050914;28;20121;-48
2023/11/30 10:04:14;;;;;;;52.33;25.60;;;;;;;6.98;68.89;100357.50;5050144;28;20095;-49
2023/11/30 10:06:40;;;;;;;58.03;25.45;;;;;;;6.79;69.31;100356.25;5051136;28;20514;-45
2023/11/30 10:09:12;;;;;;;53.53;25.40;;;;;;;7.19;68.71;100359.63;5050190;28;20066;-47
2023/11/30 10:11:40;;;;;;;50.63;25.27;;;;;;;7.24;68.15;100363.19;5050789;28;20025;-49
2023/11/30 10:14:06;;;;;;;52.35;25.55;;;;;;;7.28;68.34;100370.16;5050568;28;20044;-50
2023/11/30 10:16:31;;;;;;;53.78;25.40;;;;;;;7.34;67.50;100370.28;5051122;28;20052;-45
2023/11/30 10:18:57;;;;;;;50.88;24.65;;;;;;;7.21;67.80;100365.69;5050178;28;20111;-46
2023/11/30 10:21:22;;;;;;;52.10;25.02;;;;;;;7.66;67.02;100365.66;5051444;28;20028;-46
2023/11/30 10:23:47;;;;;;;50.85;25.75;;;;;;;7.73;66.38;100363.19;5051060;28;20032;-45
2023/11/30 10:26:16;;;;;;;45.72;23.60;;;;;;;7.71;65.60;100364.00;5050020;28;20402;-51
2023/11/30 10:28:42;;;;;;;45.50;23.42;;;;;;;7.62;65.88;100364.72;5051141;28;20060;-46
2023/11/30 10:31:08;;;;;;;51.38;24.25;;;;;;;7.24;66.63;100363.19;5050436;28;20463;-45
2023/11/30 10:33:37;;;;;;;47.13;24.13;;;;;;;7.62;66.56;100371.66;5051418;28;20548;-44
2023/11/30 10:36:05;;;;;;;44.97;23.13;;;;;;;7.78;66.03;100365.84;5050601;28;20037;-45
2023/11/30 10:38:36;;;;;;;42.25;23.10;;;;;;;7.65;66.07;100367.38;5051441;28;20067;-45
2023/11/30 10:41:09;;;;;;;45.35;23.27;;;;;;;7.57;65.09;100355.09;5049995;28;20045;-49
2023/11/30 10:43:43;;;;;;;45.40;23.67;;;;;;;7.65;64.59;100354.41;5050274;28;20033;-46
2023/11/30 10:46:13;;;;;;;45.58;24.25;;;;;;;7.49;65.34;100361.91;5049397;28;20044;-45
2023/11/30 10:48:38;;;;;;;43.28;22.73;;;;;;;7.50;65.03;100350.69;5049895;28;20029;-45
2023/11/30 10:51:07;;;;;;;48.42;23.67;;;;;;;7.42;64.65;100353.13;5049280;28;20043;-48
2023/11/30 10:53:48;;;;;;;46.38;23.48;;;;;;;7.53;64.61;100348.13;5050020;28;20037;-47
2023/11/30 10:56:15;;;;;;;44.78;23.17;;;;;;;7.28;64.75;100355.47;5049439;28;20029;-47
2023/11/30 10:58:44;;;;;;;45.28;23.85;;;;;;;7.63;65.55;100360.41;5049690;28;20120;-44
2023/11/30 11:01:13;;;;;;;46.92;22.98;;;;;;;7.66;65.59;100363.94;5047974;28;20041;-46
2023/11/30 11:03:52;;;;;;;46.25;23.00;;;;;;;7.85;65.12;100359.06;5050054;28;20557;-48
2023/11/30 11:06:23;;;;;;;47.22;24.17;;;;;;;7.60;65.23;100358.66;5049229;28;20041;-45
2023/11/30 11:08:58;;;;;;;42.05;23.63;;;;;;;7.93;64.30;100357.47;5050318;28;20111;-49
2023/11/30 11:11:28;;;;;;;44.45;23.75;;;;;;;7.97;64.07;100361.84;5049930;28;20055;-45